createdAt,value
2022-11-14T00:01:16.654Z,5.75
2022-11-14T00:03:18.508Z,5.15
2022-11-14T00:05:21.071Z,9.45
2022-11-14T00:07:22.772Z,6.10
2022-11-14T00:09:28.250Z,6.72
2022-11-14T00:11:30.080Z,7.13
2022-11-14T00:13:31.715Z,5.88
2022-11-14T00:15:33.400Z,7.03
2022-11-14T00:17:35.097Z,5.97
2022-11-14T00:19:36.732Z,8.88
2022-11-14T00:21:40.945Z,8.57
2022-11-14T00:23:42.554Z,8.63
2022-11-14T00:25:45.203Z,8.45
2022-11-14T00:27:46.881Z,7.38
2022-11-14T00:29:48.535Z,6.90
2022-11-14T00:31:50.417Z,6.57
2022-11-14T00:33:52.174Z,7.65
2022-11-14T00:35:55.078Z,6.07
2022-11-14T00:37:56.740Z,5.70
2022-11-14T00:39:58.389Z,6.93
2022-11-14T00:42:00.021Z,6.85
2022-11-14T00:44:01.768Z,6.85
2022-11-14T00:46:03.632Z,6.50
2022-11-14T00:48:05.524Z,6.22
2022-11-14T00:50:07.715Z,6.88
2022-11-14T00:52:09.380Z,7.60
2022-11-14T00:54:11.331Z,5.88
2022-11-14T00:56:12.990Z,6.93
2022-11-14T00:58:14.636Z,6.43
2022-11-14T01:00:16.410Z,5.22
2022-11-14T01:02:18.023Z,6.32
2022-11-14T01:04:19.655Z,7.53
2022-11-14T01:06:21.382Z,6.20
2022-11-14T01:08:23.177Z,6.05
2022-11-14T01:10:25.172Z,7.40
2022-11-14T01:12:26.814Z,6.20
2022-11-14T01:14:28.433Z,5.05
2022-11-14T01:16:30.130Z,6.13
2022-11-14T01:18:32.455Z,5.70
2022-11-14T01:20:34.283Z,6.60
2022-11-14T01:22:35.996Z,7.18
2022-11-14T01:24:37.668Z,7.03
2022-11-14T01:26:39.317Z,6.50
2022-11-14T01:28:41.264Z,6.88
2022-11-14T01:30:43.289Z,7.00
2022-11-14T01:32:44.970Z,6.32
2022-11-14T01:34:46.852Z,5.65
2022-11-14T01:36:48.500Z,8.00
2022-11-14T01:38:54.062Z,7.18
2022-11-14T01:40:55.863Z,6.65
2022-11-14T01:43:31.257Z,7.35
2022-11-14T01:45:58.783Z,6.10
2022-11-14T01:48:00.407Z,6.75
2022-11-14T01:50:06.347Z,6.97
2022-11-14T01:52:13.248Z,7.47
2022-11-14T01:54:26.300Z,6.00
2022-11-14T01:56:32.619Z,7.45
2022-11-14T01:58:35.826Z,6.63
2022-11-14T02:00:37.745Z,7.00
2022-11-14T02:02:39.583Z,9.65
2022-11-14T02:04:44.250Z,5.78
2022-11-14T02:06:46.671Z,6.65
2022-11-14T02:08:49.157Z,5.80
2022-11-14T02:10:50.838Z,7.22
2022-11-14T02:12:53.208Z,6.45
2022-11-14T02:14:56.549Z,5.78
2022-11-14T02:17:22.716Z,5.82
2022-11-14T02:19:19.805Z,7.32
2022-11-14T02:21:21.562Z,5.80
2022-11-14T02:23:30.848Z,7.32
2022-11-14T02:25:32.599Z,6.45
2022-11-14T02:27:35.243Z,6.18
2022-11-14T02:29:37.445Z,6.57
2022-11-14T02:31:39.133Z,6.90
2022-11-14T02:33:41.905Z,6.72
2022-11-14T02:35:43.761Z,6.13
2022-11-14T02:37:45.402Z,6.40
2022-11-14T02:39:47.053Z,6.40
2022-11-14T02:41:50.164Z,8.32
2022-11-14T02:43:51.834Z,6.28
2022-11-14T02:45:53.548Z,7.25
2022-11-14T02:47:55.198Z,7.28
2022-11-14T02:49:56.831Z,6.18
2022-11-14T02:51:58.528Z,7.57
2022-11-14T02:54:00.193Z,7.32
2022-11-14T02:56:01.889Z,6.68
2022-11-14T02:58:03.556Z,7.25
2022-11-14T03:00:08.842Z,8.40
2022-11-14T03:02:15.076Z,8.45
2022-11-14T03:04:16.829Z,8.13
2022-11-14T03:06:18.461Z,7.75
2022-11-14T03:08:20.113Z,6.32
2022-11-14T03:10:22.818Z,7.18
2022-11-14T03:12:24.470Z,8.23
2022-11-14T03:14:26.229Z,7.93
2022-11-14T03:16:27.925Z,5.15
2022-11-14T03:18:29.710Z,7.35
2022-11-14T03:20:31.563Z,8.20
2022-11-14T03:22:33.217Z,7.28
2022-11-14T03:24:34.918Z,8.32
2022-11-14T03:26:36.586Z,7.28
2022-11-14T03:28:38.768Z,7.50
2022-11-14T03:30:40.464Z,7.72
2022-11-14T03:32:42.144Z,7.40
2022-11-14T03:34:43.802Z,7.78
2022-11-14T03:36:45.662Z,7.38
2022-11-14T03:38:48.004Z,7.25
2022-11-14T03:40:50.869Z,6.80
2022-11-14T03:42:57.470Z,10.48
2022-11-14T03:44:59.136Z,6.90
2022-11-14T03:47:00.863Z,6.93
2022-11-14T03:49:02.617Z,7.03
2022-11-14T03:51:04.292Z,7.65
2022-11-14T03:53:06.118Z,8.25
2022-11-14T03:55:08.454Z,8.65
2022-11-14T03:57:10.126Z,9.10
2022-11-14T03:59:11.790Z,7.30
2022-11-14T04:01:13.489Z,8.05
2022-11-14T04:03:15.254Z,8.25
2022-11-14T04:05:17.032Z,9.05
2022-11-14T04:07:18.693Z,7.40
2022-11-14T04:09:20.376Z,7.88
2022-11-14T04:11:22.153Z,6.93
2022-11-14T04:13:23.808Z,9.40
2022-11-14T04:15:25.443Z,8.32
2022-11-14T04:17:27.059Z,8.73
2022-11-14T04:19:28.702Z,7.57
2022-11-14T04:21:30.348Z,10.40
2022-11-14T04:23:31.993Z,8.50
2022-11-14T04:25:33.707Z,10.63
2022-11-14T04:27:35.382Z,8.20
2022-11-14T04:29:37.023Z,9.55
2022-11-14T04:31:38.688Z,9.85
2022-11-14T04:33:40.370Z,10.73
2022-11-14T04:35:42.147Z,10.55
2022-11-14T04:37:43.774Z,10.35
2022-11-14T04:39:45.485Z,9.23
2022-11-14T04:41:47.114Z,12.98
2022-11-14T04:43:51.000Z,10.65
2022-11-14T04:45:52.914Z,7.10
2022-11-14T04:47:54.611Z,7.82
2022-11-14T04:49:56.255Z,9.00
2022-11-14T04:51:57.963Z,8.85
2022-11-14T04:53:59.567Z,10.95
2022-11-14T04:56:01.399Z,8.32
2022-11-14T04:58:03.454Z,8.40
2022-11-14T05:00:06.455Z,13.27
2022-11-14T05:02:08.130Z,7.50
2022-11-14T05:04:09.919Z,9.25
2022-11-14T05:06:11.608Z,8.38
2022-11-14T05:08:13.320Z,8.52
2022-11-14T05:10:15.105Z,9.45
2022-11-14T05:12:19.736Z,11.23
2022-11-14T05:14:21.438Z,7.00
2022-11-14T05:16:23.120Z,9.00
2022-11-14T05:18:24.849Z,7.70
2022-11-14T05:20:26.512Z,8.30
2022-11-14T05:22:28.108Z,7.43
2022-11-14T05:24:30.047Z,8.05
2022-11-14T05:26:31.682Z,8.63
2022-11-14T05:28:33.690Z,8.18
2022-11-14T05:30:35.281Z,7.90
2022-11-14T05:32:36.848Z,7.82
2022-11-14T05:34:38.533Z,9.07
2022-11-14T05:36:40.161Z,11.15
2022-11-14T05:38:42.607Z,9.02
2022-11-14T05:40:44.259Z,10.88
2022-11-14T05:42:45.932Z,9.60
2022-11-14T05:44:47.635Z,11.18
2022-11-14T05:46:49.389Z,9.77
2022-11-14T05:48:51.060Z,9.68
2022-11-14T05:50:59.722Z,10.95
2022-11-14T05:53:01.385Z,10.32
2022-11-14T05:55:03.072Z,9.15
2022-11-14T05:57:05.315Z,9.63
2022-11-14T05:59:07.004Z,12.38
2022-11-14T06:01:13.995Z,13.95
2022-11-14T06:03:15.613Z,9.63
2022-11-14T06:05:17.374Z,12.40
2022-11-14T06:07:20.474Z,9.45
2022-11-14T06:09:22.336Z,8.45
2022-11-14T06:11:23.960Z,8.82
2022-11-14T06:13:25.911Z,9.40
2022-11-14T06:15:27.968Z,10.95
2022-11-14T06:17:29.841Z,11.45
2022-11-14T06:19:31.757Z,10.88
2022-11-14T06:21:33.699Z,12.00
2022-11-14T06:23:35.508Z,11.23
2022-11-14T06:25:37.103Z,10.65
2022-11-14T06:27:39.006Z,10.00
2022-11-14T06:29:40.821Z,11.38
2022-11-14T06:31:42.648Z,10.27
2022-11-14T06:33:44.668Z,10.75
2022-11-14T06:35:46.393Z,13.57
2022-11-14T06:37:48.165Z,14.30
2022-11-14T06:39:49.941Z,10.30
2022-11-14T06:41:51.601Z,11.57
2022-11-14T06:43:54.422Z,13.13
2022-11-14T06:45:56.114Z,11.40
2022-11-14T06:48:00.419Z,9.65
2022-11-14T06:50:02.234Z,12.30
2022-11-14T06:52:04.555Z,11.60
2022-11-14T06:54:06.363Z,12.75
2022-11-14T06:56:13.038Z,12.32
2022-11-14T06:58:14.726Z,12.48
2022-11-14T07:00:16.578Z,11.77
2022-11-14T07:02:22.200Z,10.63
2022-11-14T07:04:24.058Z,11.23
2022-11-14T07:06:26.946Z,13.23
2022-11-14T07:08:29.008Z,9.43
2022-11-14T07:10:30.763Z,13.23
2022-11-14T07:12:32.906Z,10.13
2022-11-14T07:14:34.566Z,12.82
2022-11-14T07:16:36.742Z,10.65
2022-11-14T07:18:38.468Z,10.02
2022-11-14T07:20:40.248Z,14.00
2022-11-14T07:22:42.043Z,9.75
2022-11-14T07:24:43.727Z,9.73
2022-11-14T07:26:46.789Z,10.15
2022-11-14T07:28:52.874Z,10.93
2022-11-14T07:30:59.306Z,12.70
2022-11-14T07:33:00.985Z,12.75
2022-11-14T07:35:02.977Z,11.32
2022-11-14T07:37:04.781Z,9.10
2022-11-14T07:39:06.641Z,12.02
2022-11-14T07:41:13.560Z,11.52
2022-11-14T07:43:15.211Z,12.00
2022-11-14T07:45:20.106Z,9.85
2022-11-14T07:47:21.751Z,10.15
2022-11-14T07:49:23.655Z,9.60
2022-11-14T07:51:25.370Z,10.57
2022-11-14T07:53:27.985Z,10.93
2022-11-14T07:55:29.663Z,10.32
2022-11-14T07:57:35.461Z,10.23
2022-11-14T07:59:40.346Z,10.20
2022-11-14T08:01:41.974Z,8.70
2022-11-14T08:03:45.929Z,8.07
2022-11-14T08:05:48.355Z,8.88
2022-11-14T08:07:53.026Z,9.40
2022-11-14T08:09:54.694Z,10.00
2022-11-14T08:11:56.738Z,10.15
2022-11-14T08:13:58.482Z,8.77
2022-11-14T08:16:07.934Z,8.40
2022-11-14T08:18:13.822Z,8.57
2022-11-14T08:20:16.299Z,10.07
2022-11-14T08:22:28.332Z,8.38
2022-11-14T08:24:30.233Z,8.10
2022-11-14T08:26:34.411Z,7.47
2022-11-14T08:28:36.534Z,8.45
2022-11-14T08:30:41.439Z,9.32
2022-11-14T08:32:43.385Z,9.30
2022-11-14T08:34:45.537Z,8.25
2022-11-14T08:37:00.381Z,7.97
2022-11-14T08:39:02.453Z,8.98
2022-11-14T08:41:05.018Z,7.70
2022-11-14T08:43:06.809Z,8.25
2022-11-14T08:45:24.418Z,8.68
2022-11-14T08:47:26.700Z,9.55
2022-11-14T08:49:28.428Z,9.60
2022-11-14T08:51:30.286Z,6.95
2022-11-14T08:53:33.092Z,9.63
2022-11-14T08:55:34.969Z,8.77
2022-11-14T08:57:36.625Z,8.32
2022-11-14T08:59:38.323Z,8.93
2022-11-14T09:01:40.108Z,7.40
2022-11-14T09:03:41.878Z,7.70
2022-11-14T09:05:43.717Z,9.23
2022-11-14T09:07:45.607Z,6.22
2022-11-14T09:09:47.341Z,7.93
2022-11-14T09:11:49.029Z,7.13
2022-11-14T09:13:50.799Z,8.43
2022-11-14T09:15:52.436Z,8.05
2022-11-14T09:17:57.836Z,7.22
2022-11-14T09:19:59.486Z,7.97
2022-11-14T09:22:01.196Z,7.50
2022-11-14T09:24:02.873Z,9.13
2022-11-14T09:26:05.667Z,8.23
2022-11-14T09:28:08.116Z,7.55
2022-11-14T09:30:10.562Z,7.88
2022-11-14T09:32:12.222Z,8.05
2022-11-14T09:34:14.131Z,7.65
2022-11-14T09:36:17.099Z,8.02
2022-11-14T09:38:18.750Z,7.93
2022-11-14T09:40:20.419Z,7.07
2022-11-14T09:42:43.080Z,8.02
2022-11-14T09:45:03.560Z,7.63
2022-11-14T09:47:21.000Z,7.18
2022-11-14T09:49:35.107Z,7.57
2022-11-14T09:51:44.338Z,8.18
2022-11-14T09:53:54.526Z,8.60
2022-11-14T09:55:56.148Z,6.75
2022-11-14T09:57:57.881Z,8.07
2022-11-14T09:59:59.605Z,6.68
2022-11-14T10:02:16.480Z,7.20
2022-11-14T10:04:46.914Z,6.53
2022-11-14T10:07:12.931Z,7.25
2022-11-14T10:09:28.865Z,7.10
2022-11-14T10:11:45.331Z,6.88
2022-11-14T10:14:04.514Z,6.25
2022-11-14T10:16:24.394Z,7.18
2022-11-14T10:19:03.249Z,8.05
2022-11-14T10:21:41.812Z,7.22
2022-11-14T10:24:07.358Z,9.63
2022-11-14T10:26:31.537Z,7.57
2022-11-14T10:28:57.932Z,6.32
2022-11-14T10:31:27.603Z,7.40
2022-11-14T10:33:36.920Z,6.45
2022-11-14T10:36:08.082Z,6.53
2022-11-14T10:38:41.122Z,7.45
2022-11-14T10:40:49.812Z,8.77
2022-11-14T10:42:56.208Z,6.97
2022-11-14T10:45:03.650Z,5.70
2022-11-14T10:47:08.861Z,6.50
2022-11-14T10:49:16.984Z,7.13
2022-11-14T10:51:19.074Z,6.70
2022-11-14T10:53:29.772Z,8.10
2022-11-14T10:55:57.801Z,6.20
2022-11-14T10:57:53.155Z,7.22
2022-11-14T10:59:55.675Z,8.02
2022-11-14T11:01:58.668Z,11.25
2022-11-14T11:04:12.284Z,5.90
2022-11-14T11:06:27.611Z,6.22
2022-11-14T11:08:47.983Z,10.55
2022-11-14T11:11:08.340Z,6.40
2022-11-14T11:13:15.713Z,6.38
2022-11-14T11:15:22.531Z,6.30
2022-11-14T11:17:28.061Z,6.82
2022-11-14T11:19:33.104Z,6.35
2022-11-14T11:21:48.431Z,5.82
2022-11-14T11:23:52.134Z,5.75
2022-11-14T11:26:05.814Z,4.78
2022-11-14T11:28:17.613Z,5.45
2022-11-14T11:30:23.179Z,6.15
2022-11-14T11:32:26.342Z,5.40
2022-11-14T11:34:31.844Z,5.40
2022-11-14T11:36:49.134Z,6.47
2022-11-14T11:38:50.957Z,5.88
2022-11-14T11:40:55.467Z,5.15
2022-11-14T11:45:22.536Z,5.78
2022-11-14T11:47:25.957Z,4.90
2022-11-14T11:49:53.431Z,5.50
2022-11-14T11:51:57.142Z,5.60
2022-11-14T11:54:05.593Z,4.82
2022-11-14T11:56:13.527Z,5.32
2022-11-14T11:58:21.130Z,5.40
2022-11-14T12:00:23.151Z,5.10
2022-11-14T12:02:28.274Z,5.68
2022-11-14T12:04:30.728Z,5.10
2022-11-14T12:06:40.989Z,5.10
2022-11-14T12:08:52.650Z,4.82
2022-11-14T12:10:54.662Z,5.25
2022-11-14T12:12:58.948Z,4.95
2022-11-14T12:15:09.326Z,5.07
2022-11-14T12:17:43.430Z,5.85
2022-11-14T12:20:00.085Z,10.13
2022-11-14T12:22:07.213Z,6.15
2022-11-14T12:24:33.177Z,6.60
2022-11-14T12:26:56.282Z,5.78
2022-11-14T12:29:06.939Z,4.95
2022-11-14T12:31:12.876Z,6.07
2022-11-14T12:33:32.402Z,5.68
2022-11-14T12:35:36.306Z,6.03
2022-11-14T12:37:44.177Z,4.90
2022-11-14T12:39:56.685Z,6.03
2022-11-14T12:42:03.641Z,5.53
2022-11-14T12:44:29.801Z,5.53
2022-11-14T12:47:03.382Z,5.70
2022-11-14T12:49:45.714Z,3.53
2022-11-14T12:51:49.727Z,4.90
2022-11-14T12:53:52.627Z,6.32
2022-11-14T12:55:55.039Z,5.13
2022-11-14T12:58:06.220Z,5.20
2022-11-14T13:00:08.875Z,5.32
2022-11-14T13:02:42.566Z,5.70
2022-11-14T13:04:58.620Z,4.82
2022-11-14T13:07:21.519Z,5.53
2022-11-14T13:09:53.876Z,4.05
2022-11-14T13:12:14.309Z,6.38
2022-11-14T13:14:35.087Z,5.32
2022-11-14T13:16:55.241Z,4.82
2022-11-14T13:19:41.615Z,5.53
2022-11-14T13:22:11.584Z,5.20
2022-11-14T13:24:14.574Z,4.97
2022-11-14T13:26:16.253Z,5.70
2022-11-14T13:28:36.276Z,5.20
2022-11-14T13:31:14.994Z,7.15
2022-11-14T13:33:42.531Z,5.32
2022-11-14T13:35:51.517Z,6.35
2022-11-14T13:38:20.879Z,5.75
2022-11-14T13:40:50.370Z,5.75
2022-11-14T13:43:13.212Z,6.45
2022-11-14T13:45:38.675Z,5.32
2022-11-14T13:48:11.055Z,6.78
2022-11-14T13:50:15.334Z,5.85
2022-11-14T13:52:17.249Z,6.53
2022-11-14T13:54:19.165Z,5.38
2022-11-14T13:56:23.789Z,5.95
2022-11-14T13:58:30.585Z,5.28
2022-11-14T14:01:12.877Z,5.10
2022-11-14T14:03:40.952Z,6.15
2022-11-14T14:06:12.497Z,6.82
2022-11-14T14:08:55.192Z,5.80
2022-11-14T14:11:27.755Z,5.80
2022-11-14T14:14:07.597Z,5.07
2022-11-14T14:16:27.309Z,6.32
2022-11-14T14:18:59.836Z,5.03
2022-11-14T14:21:07.746Z,5.47
2022-11-14T14:23:46.529Z,5.32
2022-11-14T14:25:54.812Z,6.68
2022-11-14T14:28:29.512Z,6.20
2022-11-14T14:30:31.579Z,5.72
2022-11-14T14:32:33.445Z,6.25
2022-11-14T14:34:35.107Z,5.78
2022-11-14T14:36:36.780Z,6.07
2022-11-14T14:38:38.491Z,6.82
2022-11-14T14:40:41.695Z,6.32
2022-11-14T14:42:49.314Z,5.68
2022-11-14T14:44:50.990Z,6.28
2022-11-14T14:46:53.600Z,6.68
2022-11-14T14:48:55.692Z,6.72
2022-11-14T14:50:58.817Z,7.13
2022-11-14T14:53:01.836Z,11.05
2022-11-14T14:55:06.709Z,6.05
2022-11-14T14:57:17.351Z,5.88
2022-11-14T14:59:23.733Z,6.75
2022-11-14T15:01:34.555Z,7.15
2022-11-14T15:03:38.352Z,5.82
2022-11-14T15:05:40.063Z,6.15
2022-11-14T15:07:41.718Z,5.55
2022-11-14T15:10:00.114Z,5.85
2022-11-14T15:12:02.894Z,6.32
2022-11-14T15:14:04.942Z,9.32
2022-11-14T15:16:07.368Z,9.88
2022-11-14T15:18:19.051Z,6.95
2022-11-14T15:20:30.070Z,8.30
2022-11-14T15:22:33.108Z,7.07
2022-11-14T15:24:34.900Z,7.40
2022-11-14T15:26:36.519Z,5.88
2022-11-14T15:28:38.315Z,6.57
2022-11-14T15:30:39.946Z,6.43
2022-11-14T15:32:49.712Z,10.77
2022-11-14T15:35:12.961Z,6.65
2022-11-14T15:37:14.663Z,5.53
2022-11-14T15:39:27.265Z,6.55
2022-11-14T15:41:29.895Z,5.70
2022-11-14T15:43:43.981Z,9.07
2022-11-14T15:45:45.606Z,8.55
2022-11-14T15:47:47.416Z,7.65
2022-11-14T15:50:00.104Z,6.50
2022-11-14T15:52:02.897Z,7.90
2022-11-14T15:54:04.798Z,6.85
2022-11-14T15:56:10.090Z,7.18
2022-11-14T15:58:29.288Z,7.40
2022-11-14T16:00:31.212Z,10.15
2022-11-14T16:02:34.634Z,6.68
2022-11-14T16:04:37.059Z,6.72
2022-11-14T16:06:38.718Z,7.70
2022-11-14T16:08:40.373Z,7.38
2022-11-14T16:10:42.017Z,7.45
2022-11-14T16:12:46.785Z,8.70
2022-11-14T16:14:52.773Z,7.35
2022-11-14T16:16:54.458Z,8.13
2022-11-14T16:18:56.067Z,8.18
2022-11-14T16:20:59.435Z,10.98
2022-11-14T16:23:01.214Z,11.55
2022-11-14T16:25:03.107Z,13.65
2022-11-14T16:27:04.739Z,10.68
2022-11-14T16:29:07.687Z,13.88
2022-11-14T16:31:13.207Z,12.55
2022-11-14T16:33:14.851Z,8.32
2022-11-14T16:35:25.134Z,13.18
2022-11-14T16:37:26.837Z,10.15
2022-11-14T16:39:29.243Z,9.20
2022-11-14T16:41:30.890Z,11.82
2022-11-14T16:43:32.830Z,13.60
2022-11-14T16:45:39.840Z,10.48
2022-11-14T16:47:41.567Z,7.68
2022-11-14T16:49:43.296Z,6.40
2022-11-14T16:51:49.456Z,6.78
2022-11-14T16:53:55.361Z,6.88
2022-11-14T16:55:57.659Z,6.60
2022-11-14T16:57:59.339Z,4.63
2022-11-14T17:00:01.063Z,5.88
2022-11-14T17:02:03.015Z,4.28
2022-11-14T17:04:05.699Z,4.72
2022-11-14T17:06:10.730Z,5.07
2022-11-14T17:08:12.866Z,6.45
2022-11-14T17:10:14.471Z,4.93
2022-11-14T17:12:16.138Z,4.45
2022-11-14T17:14:17.872Z,5.07
2022-11-14T17:16:19.605Z,5.53
2022-11-14T17:18:21.296Z,5.38
2022-11-14T17:20:23.023Z,6.32
2022-11-14T17:22:24.731Z,4.82
2022-11-14T17:24:31.227Z,5.93
2022-11-14T17:26:33.341Z,6.82
2022-11-14T17:28:35.484Z,6.40
2022-11-14T17:30:43.534Z,5.97
2022-11-14T17:32:45.360Z,5.28
2022-11-14T17:34:47.085Z,4.78
2022-11-14T17:36:48.730Z,4.97
2022-11-14T17:38:50.582Z,6.43
2022-11-14T17:40:57.839Z,5.85
2022-11-14T17:42:59.463Z,6.57
2022-11-14T17:45:01.955Z,5.05
2022-11-14T17:47:03.651Z,4.70
2022-11-14T17:49:05.582Z,5.40
2022-11-14T17:51:11.684Z,5.53
2022-11-14T17:53:13.340Z,5.15
2022-11-14T17:55:14.989Z,5.22
2022-11-14T17:57:17.583Z,7.00
2022-11-14T17:59:20.509Z,4.88
2022-11-14T18:01:24.788Z,5.45
2022-11-14T18:03:27.466Z,5.47
2022-11-14T18:05:29.114Z,6.18
2022-11-14T18:07:30.848Z,5.63
2022-11-14T18:09:32.770Z,4.50
2022-11-14T18:11:35.041Z,4.53
2022-11-14T18:13:38.001Z,8.50
2022-11-14T18:15:39.734Z,3.85
2022-11-14T18:17:41.711Z,5.00
2022-11-14T18:19:43.436Z,4.72
2022-11-14T18:21:49.140Z,5.90
2022-11-14T18:23:55.740Z,6.18
2022-11-14T18:25:57.383Z,5.53
2022-11-14T18:27:59.067Z,6.30
2022-11-14T18:30:13.773Z,5.88
2022-11-14T18:32:22.421Z,5.30
2022-11-14T18:34:24.115Z,4.10
2022-11-14T18:36:25.826Z,3.88
2022-11-14T18:38:31.733Z,3.97
2022-11-14T18:40:33.737Z,4.00
2022-11-14T18:42:35.544Z,3.63
2022-11-14T18:44:37.281Z,4.82
2022-11-14T18:46:39.982Z,3.70
2022-11-14T18:48:44.530Z,3.97
2022-11-14T18:50:49.390Z,3.42
2022-11-14T18:52:51.711Z,3.05
2022-11-14T18:54:54.042Z,3.05
2022-11-14T18:56:56.121Z,6.95
2022-11-14T18:58:59.213Z,3.75
2022-11-14T19:01:16.407Z,4.00
2022-11-14T19:03:23.232Z,3.35
2022-11-14T19:05:25.599Z,3.28
2022-11-14T19:07:29.546Z,4.07
2022-11-14T19:09:31.292Z,3.53
2022-11-14T19:11:51.462Z,3.10
2022-11-14T19:13:53.191Z,3.78
2022-11-14T19:16:02.362Z,3.65
2022-11-14T19:18:03.963Z,4.15
2022-11-14T19:20:11.378Z,4.47
2022-11-14T19:22:17.090Z,6.80
2022-11-14T19:24:19.067Z,5.07
2022-11-14T19:26:21.609Z,6.53
2022-11-14T19:28:26.513Z,6.25
2022-11-14T19:30:31.275Z,7.20
2022-11-14T19:32:34.393Z,7.70
2022-11-14T19:34:36.293Z,5.43
2022-11-14T19:36:58.726Z,4.93
2022-11-14T19:39:01.034Z,4.25
2022-11-14T19:41:20.738Z,6.78
2022-11-14T19:43:22.710Z,3.92
2022-11-14T19:45:24.357Z,3.80
2022-11-14T19:47:25.978Z,4.05
2022-11-14T19:49:27.687Z,2.88
2022-11-14T19:51:30.057Z,3.10
2022-11-14T19:53:34.157Z,3.15
2022-11-14T19:55:35.773Z,3.80
2022-11-14T19:57:37.364Z,5.93
2022-11-14T19:59:38.987Z,3.22
2022-11-14T20:01:42.217Z,3.80
2022-11-14T20:03:44.660Z,4.15
2022-11-14T20:05:46.300Z,2.28
2022-11-14T20:07:47.954Z,6.03
2022-11-14T20:09:49.648Z,4.35
2022-11-14T20:11:51.330Z,3.63
2022-11-14T20:13:53.455Z,3.63
2022-11-14T20:15:55.051Z,2.97
2022-11-14T20:17:56.678Z,4.03
2022-11-14T20:19:58.338Z,6.75
2022-11-14T20:22:00.761Z,2.38
2022-11-14T20:24:02.465Z,6.43
2022-11-14T20:26:11.113Z,2.88
2022-11-14T20:28:13.160Z,3.60
2022-11-14T20:30:15.461Z,3.13
2022-11-14T20:32:17.145Z,2.85
2022-11-14T20:34:18.927Z,6.30
2022-11-14T20:36:24.646Z,4.70
2022-11-14T20:38:29.555Z,4.88
2022-11-14T20:40:31.672Z,7.38
2022-11-14T20:42:33.274Z,7.22
2022-11-14T20:44:35.170Z,5.00
2022-11-14T20:46:36.762Z,3.70
2022-11-14T20:48:38.550Z,3.40
2022-11-14T20:50:40.167Z,3.80
2022-11-14T20:52:41.842Z,3.20
2022-11-14T20:54:43.493Z,3.67
2022-11-14T20:56:45.105Z,3.45
2022-11-14T20:58:48.021Z,3.80
2022-11-14T21:00:50.748Z,2.83
2022-11-14T21:02:53.701Z,4.10
2022-11-14T21:04:55.380Z,4.45
2022-11-14T21:06:57.098Z,3.22
2022-11-14T21:08:58.916Z,3.75
2022-11-14T21:11:03.038Z,5.90
2022-11-14T21:13:26.754Z,4.30
2022-11-14T21:15:28.312Z,3.72
2022-11-14T21:17:31.587Z,4.18
2022-11-14T21:19:33.270Z,4.15
2022-11-14T21:21:36.591Z,2.67
2022-11-14T21:23:38.258Z,4.28
2022-11-14T21:25:40.464Z,5.45
2022-11-14T21:27:42.141Z,6.07
2022-11-14T21:29:43.894Z,4.40
2022-11-14T21:31:46.324Z,5.80
2022-11-14T21:33:49.084Z,9.25
2022-11-14T21:35:50.681Z,3.08
2022-11-14T21:37:52.275Z,5.13
2022-11-14T21:39:53.989Z,5.78
2022-11-14T21:41:55.574Z,3.92
2022-11-14T21:43:59.258Z,4.47
2022-11-14T21:46:03.303Z,3.60
2022-11-14T21:48:05.052Z,7.70
2022-11-14T21:50:07.101Z,7.60
2022-11-14T21:52:08.824Z,6.28
2022-11-14T21:54:10.587Z,5.00
2022-11-14T21:56:26.679Z,9.80
2022-11-14T21:58:30.806Z,7.82
2022-11-14T22:00:33.733Z,3.70
2022-11-14T22:02:54.164Z,2.78
2022-11-14T22:04:55.884Z,2.75
2022-11-14T22:06:58.471Z,2.70
2022-11-14T22:09:00.212Z,4.63
2022-11-14T22:11:02.179Z,2.70
2022-11-14T22:13:03.806Z,2.78
2022-11-14T22:15:06.003Z,3.50
2022-11-14T22:17:07.636Z,2.20
2022-11-14T22:19:09.287Z,2.33
2022-11-14T22:21:11.010Z,3.00
2022-11-14T22:23:12.625Z,2.97
2022-11-14T22:25:14.355Z,2.33
2022-11-14T22:27:15.981Z,4.15
2022-11-14T22:29:17.677Z,4.57
2022-11-14T22:31:21.363Z,2.80
2022-11-14T22:33:23.069Z,2.63
2022-11-14T22:35:24.822Z,2.97
2022-11-14T22:37:26.491Z,2.60
2022-11-14T22:39:28.345Z,2.55
2022-11-14T22:41:33.218Z,2.30
2022-11-14T22:43:35.535Z,3.78
2022-11-14T22:45:37.210Z,1.88
2022-11-14T22:47:38.828Z,3.80
2022-11-14T22:49:40.467Z,5.88
2022-11-14T22:51:42.087Z,3.20
2022-11-14T22:53:48.499Z,2.00
2022-11-14T22:55:50.372Z,2.75
2022-11-14T22:57:51.999Z,3.13
2022-11-14T22:59:53.729Z,2.83
2022-11-14T23:01:55.424Z,3.80
2022-11-14T23:04:04.828Z,2.63
2022-11-14T23:06:16.833Z,3.58
2022-11-14T23:08:19.889Z,3.85
2022-11-14T23:10:21.553Z,2.42
2022-11-14T23:12:23.224Z,2.92
2022-11-14T23:14:24.876Z,2.45
2022-11-14T23:16:31.563Z,2.40
2022-11-14T23:18:33.217Z,3.10
2022-11-14T23:20:36.126Z,2.80
2022-11-14T23:22:39.804Z,7.53
2022-11-14T23:24:41.428Z,6.47
2022-11-14T23:26:43.073Z,2.10
2022-11-14T23:28:45.818Z,2.97
2022-11-14T23:30:47.461Z,3.03
2022-11-14T23:32:49.179Z,3.70
2022-11-14T23:34:50.930Z,3.00
2022-11-14T23:36:52.585Z,3.08
2022-11-14T23:38:54.671Z,2.30
2022-11-14T23:41:01.486Z,6.03
2022-11-14T23:43:03.163Z,3.60
2022-11-14T23:45:05.161Z,2.90
2022-11-14T23:47:06.832Z,2.97
2022-11-14T23:49:08.677Z,4.05
2022-11-14T23:51:10.637Z,2.83
2022-11-14T23:53:12.342Z,3.88
2022-11-14T23:55:14.017Z,3.38
2022-11-14T23:57:15.668Z,2.60
2022-11-14T23:59:17.287Z,5.78
